Time;durP1;ratioP1;P1;durP2;ratioP2;P2;SDS_P1;SDS_P2;PMS_P1;PMS_P2;Temp;Humidity;BMP_temperature;BMP_pressure;BME280_temperature;BME280_humidity;BME280_pressure;Samples;Min_cycle;Max_cycle;Signal;HPM_P1;HPM_P2
2023/04/13 00:01:57;;;;;;;7.60;4.90;;;;;;;12.77;74.22;99270.51;108096;1254;74456;-86
2023/04/13 00:04:29;;;;;;;8.70;5.40;;;;;;;12.77;74.35;99272.00;107994;1255;71221;-86
2023/04/13 00:07:02;;;;;;;7.70;4.90;;;;;;;12.78;74.42;99272.73;108015;1255;73054;-86
2023/04/13 00:09:32;;;;;;;7.90;4.90;;;;;;;12.80;74.50;99269.20;108008;1255;61993;-86
2023/04/13 00:12:01;;;;;;;8.40;4.40;;;;;;;12.82;74.46;99263.36;108114;1255;61231;-85
2023/04/13 00:14:32;;;;;;;;;;;;;;;12.85;74.49;99259.70;107879;1256;73983;-86
2023/04/13 00:17:08;;;;;;;9.90;4.50;;;;;;;12.89;74.43;99269.46;108000;1256;71816;-86
2023/04/13 00:19:40;;;;;;;7.00;4.60;;;;;;;12.95;74.11;99266.98;108034;1254;72795;-86
2023/04/13 00:22:08;;;;;;;7.40;4.50;;;;;;;12.97;73.92;99259.45;108029;1256;62016;-86
2023/04/13 00:24:42;;;;;;;6.00;4.30;;;;;;;12.91;73.95;99259.36;108074;1256;61243;-86
2023/04/13 00:27:13;;;;;;;6.80;4.40;;;;;;;12.86;73.91;99263.99;108049;1254;73475;-86
2023/04/13 00:29:41;;;;;;;7.60;4.60;;;;;;;12.78;73.86;99259.92;108034;1258;72925;-85
2023/04/13 00:32:11;;;;;;;8.10;4.80;;;;;;;12.75;73.93;99253.19;108042;1255;72664;-86
2023/04/13 00:34:44;;;;;;;7.80;4.10;;;;;;;12.74;73.89;99254.28;108030;1255;61514;-86
2023/04/13 00:37:13;;;;;;;8.10;4.60;;;;;;;12.67;73.91;99250.01;107988;1255;61695;-86
2023/04/13 00:39:47;;;;;;;8.30;4.30;;;;;;;12.62;74.06;99246.36;107926;1255;72952;-85
2023/04/13 00:42:17;;;;;;;9.70;4.50;;;;;;;12.58;73.93;99245.91;108066;1256;71847;-86
2023/04/13 00:44:45;;;;;;;9.50;4.30;;;;;;;12.55;74.03;99244.16;107906;1256;73570;-86
2023/04/13 00:47:25;;;;;;;9.20;4.70;;;;;;;12.51;74.12;99250.67;108034;1255;61751;-86
2023/04/13 00:49:54;;;;;;;8.60;3.80;;;;;;;12.47;74.19;99242.07;108069;1255;61228;-86
2023/04/13 00:52:23;;;;;;;7.60;4.00;;;;;;;12.44;74.16;99240.38;108054;1254;74690;-86
2023/04/13 00:54:56;;;;;;;6.00;4.10;;;;;;;12.40;74.19;99247.84;108074;1255;73981;-86
2023/04/13 00:57:24;;;;;;;6.70;4.50;;;;;;;12.36;74.30;99239.67;107998;1255;72303;-87
2023/04/13 00:59:54;;;;;;;6.50;4.30;;;;;;;12.32;74.30;99234.95;108081;1255;62213;-86
2023/04/13 01:02:25;;;;;;;7.90;4.50;;;;;;;12.25;74.36;99241.05;108061;1255;58986;-86
2023/04/13 01:04:54;;;;;;;6.80;4.40;;;;;;;12.25;74.27;99246.71;108067;1256;76426;-87
2023/04/13 01:07:40;;;;;;;7.50;4.20;;;;;;;12.22;74.41;99245.77;107828;1255;73515;-86
2023/04/13 01:10:14;;;;;;;7.60;4.20;;;;;;;12.20;74.44;99243.61;108090;1255;72560;-86
2023/04/13 01:13:15;;;;;;;4.80;3.60;;;;;;;12.20;74.53;99251.76;107783;1255;63027;-86
2023/04/13 01:16:00;;;;;;;9.00;4.40;;;;;;;12.17;74.57;99239.77;107896;1255;61246;-86
2023/04/13 01:18:29;;;;;;;8.30;4.20;;;;;;;12.15;74.66;99241.42;108632;1256;73529;-84
2023/04/13 01:21:00;;;;;;;7.30;4.50;;;;;;;12.15;74.86;99247.02;108439;1255;71537;-82
2023/04/13 01:23:48;;;;;;;7.80;4.70;;;;;;;12.17;74.84;99242.71;108263;1255;71288;-86
2023/04/13 01:26:21;;;;;;;6.30;4.20;;;;;;;12.20;74.83;99240.78;107999;1255;61980;-84
2023/04/13 01:28:50;;;;;;;7.40;4.30;;;;;;;12.23;74.87;99243.20;108092;1256;61264;-87
2023/04/13 01:31:19;;;;;;;7.80;4.10;;;;;;;12.24;74.76;99236.58;108020;1256;74942;-84
2023/04/13 01:33:48;;;;;;;7.30;4.30;;;;;;;12.27;74.79;99232.02;107976;1255;74034;-85
2023/04/13 01:36:18;;;;;;;6.10;4.00;;;;;;;12.31;74.66;99230.59;107733;1256;73211;-87
2023/04/13 01:38:47;;;;;;;6.90;4.30;;;;;;;12.34;74.54;99233.89;107963;1256;61260;-85
2023/04/13 01:41:28;;;;;;;7.00;4.00;;;;;;;12.36;74.53;99233.63;107985;1256;61251;-88
2023/04/13 01:44:08;;;;;;;9.20;4.30;;;;;;;12.38;74.32;99238.69;107831;1256;74844;-86
2023/04/13 01:46:53;;;;;;;7.90;4.30;;;;;;;12.38;74.25;99246.06;108007;1256;71726;-85
2023/04/13 01:49:55;;;;;;;8.00;4.40;;;;;;;12.41;74.16;99250.98;107679;1255;72427;-86
2023/04/13 01:52:44;;;;;;;6.60;4.40;;;;;;;12.45;74.15;99251.00;107907;1255;62202;-85
2023/04/13 01:55:16;;;;;;;7.30;4.30;;;;;;;12.50;74.12;99252.02;107989;1256;61552;-85
2023/04/13 01:57:50;;;;;;;7.90;4.80;;;;;;;12.57;74.03;99253.38;107976;1260;74875;-85
2023/04/13 02:00:19;;;;;;;9.00;4.50;;;;;;;12.64;73.84;99257.77;107946;1256;72045;-85
2023/04/13 02:02:48;;;;;;;8.70;5.10;;;;;;;12.72;73.64;99262.48;107933;1256;72169;-85
2023/04/13 02:05:18;;;;;;;8.30;5.10;;;;;;;12.77;73.52;99268.43;107982;1255;63550;-85
2023/04/13 02:07:47;;;;;;;7.00;4.40;;;;;;;12.78;73.34;99274.02;107989;1255;61267;-86
2023/04/13 02:10:18;;;;;;;7.30;4.50;;;;;;;12.79;73.28;99269.48;108064;1256;73488;-85
2023/04/13 02:12:49;;;;;;;8.30;4.40;;;;;;;12.80;73.10;99258.81;104136;1255;5235955;-85
2023/04/13 02:15:19;;;;;;;9.00;4.60;;;;;;;12.77;73.07;99254.54;108011;1256;62654;-85
2023/04/13 02:17:49;;;;;;;9.40;4.40;;;;;;;12.78;72.98;99260.36;107981;1255;61531;-85
2023/04/13 02:20:18;;;;;;;7.80;4.70;;;;;;;12.76;72.88;99261.69;107942;1256;74817;-84
2023/04/13 02:22:51;;;;;;;7.90;4.40;;;;;;;12.75;72.78;99264.60;107997;1256;72998;-84
2023/04/13 02:25:22;;;;;;;8.00;4.50;;;;;;;12.73;72.72;99259.27;108051;1255;73739;-84
2023/04/13 02:27:52;;;;;;;8.20;4.10;;;;;;;12.67;72.63;99258.19;107997;1255;63033;-86
2023/04/13 02:30:21;;;;;;;7.10;4.40;;;;;;;12.63;72.58;99259.84;107942;1256;61132;-86
2023/04/13 02:32:59;;;;;;;7.00;4.40;;;;;;;12.55;72.60;99256.20;107927;1256;75735;-86
2023/04/13 02:35:31;;;;;;;5.80;3.60;;;;;;;12.52;72.64;99254.88;108026;1256;73956;-87
2023/04/13 02:38:02;;;;;;;7.30;4.30;;;;;;;12.50;72.69;99260.50;107936;1256;73595;-86
2023/04/13 02:40:35;;;;;;;;;;;;;;;12.44;72.69;99258.11;107990;1256;61272;-86
2023/04/13 02:43:04;;;;;;;6.30;3.80;;;;;;;12.35;72.74;99257.74;108063;1255;61212;-85
2023/04/13 02:45:35;;;;;;;7.50;4.20;;;;;;;12.28;72.83;99255.59;108217;1255;75026;-84
2023/04/13 02:48:05;;;;;;;5.80;4.20;;;;;;;12.22;72.94;99252.79;108555;1255;72451;-86
2023/04/13 02:50:36;;;;;;;8.30;4.20;;;;;;;12.18;73.08;99251.96;108303;1256;73735;-85
2023/04/13 02:53:07;;;;;;;7.60;4.70;;;;;;;12.15;73.04;99252.12;108034;1256;60168;-85
2023/04/13 02:55:42;;;;;;;7.40;4.60;;;;;;;12.11;73.21;99253.80;108021;1256;61297;-84
2023/04/13 02:58:12;;;;;;;6.70;4.50;;;;;;;12.10;73.31;99249.61;107949;1256;75118;-84
2023/04/13 03:00:43;;;;;;;10.20;4.10;;;;;;;12.13;73.45;99248.31;107976;1256;73929;-85
2023/04/13 03:03:19;;;;;;;8.90;4.50;;;;;;;12.17;73.46;99253.79;108001;1258;71787;-85
2023/04/13 03:05:50;;;;;;;7.00;4.40;;;;;;;12.21;73.44;99256.50;108103;1257;62345;-85
2023/04/13 03:08:26;;;;;;;6.80;4.30;;;;;;;12.23;73.47;99256.30;108069;1254;61147;-85
2023/04/13 03:11:25;;;;;;;7.50;3.90;;;;;;;12.27;73.33;99253.43;108530;1255;73548;-85
2023/04/13 03:14:20;;;;;;;7.40;4.50;;;;;;;12.29;73.36;99253.42;108683;1256;71596;-85
2023/04/13 03:16:58;;;;;;;7.20;4.50;;;;;;;12.35;73.33;99259.58;108597;1256;70264;-84
2023/04/13 03:19:39;;;;;;;7.40;4.70;;;;;;;12.42;73.14;99268.11;108653;1254;60998;-85
2023/04/13 03:22:12;;;;;;;9.40;4.40;;;;;;;12.48;73.19;99271.42;108200;1255;61239;-85
2023/04/13 03:24:45;;;;;;;6.70;4.60;;;;;;;12.53;73.04;99273.67;107955;1256;73748;-85
2023/04/13 03:27:20;;;;;;;9.20;4.70;;;;;;;12.55;72.78;99273.63;107863;1256;72886;-85
2023/04/13 03:29:52;;;;;;;7.60;4.40;;;;;;;12.56;72.84;99271.02;108010;1256;71550;-84
2023/04/13 03:32:22;;;;;;;7.00;4.40;;;;;;;12.58;72.69;99271.66;107961;1255;60934;-85
2023/04/13 03:34:57;;;;;;;7.90;4.60;;;;;;;12.59;72.57;99270.19;107943;1259;61349;-86
2023/04/13 03:37:28;;;;;;;7.40;4.70;;;;;;;12.60;72.48;99273.29;107932;1255;74727;-87
2023/04/13 03:40:02;;;;;;;8.00;4.80;;;;;;;12.62;72.43;99279.20;107922;1256;74022;-85
2023/04/13 03:42:37;;;;;;;8.20;4.80;;;;;;;12.66;72.20;99276.91;107908;1256;73633;-85
2023/04/13 03:45:09;;;;;;;7.80;5.20;;;;;;;12.71;72.14;99282.81;107913;1256;62987;-85
2023/04/13 03:47:40;;;;;;;8.30;4.90;;;;;;;12.72;72.02;99291.29;107937;1256;61136;-85
2023/04/13 03:50:09;;;;;;;8.80;5.30;;;;;;;12.73;71.94;99287.08;107970;1256;72303;-85
2023/04/13 03:52:38;;;;;;;7.80;5.50;;;;;;;12.76;72.01;99286.23;107996;1256;73527;-84
2023/04/13 03:55:07;;;;;;;11.20;5.80;;;;;;;12.79;71.98;99286.95;107950;1256;74412;-85
2023/04/13 03:57:36;;;;;;;11.40;5.70;;;;;;;12.84;71.89;99286.86;107984;1256;61294;-85
2023/04/13 04:00:12;;;;;;;10.00;5.70;;;;;;;12.85;71.94;99288.80;107758;1255;61147;-86
2023/04/13 04:02:56;;;;;;;8.40;5.90;;;;;;;12.85;71.77;99289.92;107968;1256;74037;-84
2023/04/13 04:05:31;;;;;;;9.40;5.70;;;;;;;12.85;71.81;99289.30;107946;1256;73184;-84
2023/04/13 04:08:04;;;;;;;7.80;5.30;;;;;;;12.83;71.85;99293.36;107959;1255;73886;-85
2023/04/13 04:10:33;;;;;;;8.80;5.40;;;;;;;12.79;71.75;99300.02;107951;1256;63298;-84
2023/04/13 04:13:05;;;;;;;10.40;5.30;;;;;;;12.76;71.72;99305.84;107970;1255;61240;-85
2023/04/13 04:15:38;;;;;;;8.50;5.30;;;;;;;12.73;71.67;99305.67;108473;1255;75043;-85
2023/04/13 04:18:08;;;;;;;10.40;5.30;;;;;;;12.72;71.68;99308.06;108630;1256;71874;-83
2023/04/13 04:20:40;;;;;;;8.60;5.30;;;;;;;12.72;71.66;99304.98;108155;1256;71394;-85
2023/04/13 04:23:11;;;;;;;13.60;8.60;;;;;;;12.72;71.70;99304.38;107953;1255;62652;-85
2023/04/13 04:25:53;;;;;;;11.20;8.60;;;;;;;12.73;71.64;99304.58;108015;1256;61239;-86
2023/04/13 04:28:21;;;;;;;13.30;9.30;;;;;;;12.71;71.61;99301.45;108020;1256;74784;-87
2023/04/13 04:30:53;;;;;;;10.60;7.10;;;;;;;12.72;71.78;99300.94;108000;1254;73937;-86
2023/04/13 04:33:24;;;;;;;10.30;6.40;;;;;;;12.75;71.73;99306.13;107973;1260;73078;-86
2023/04/13 04:35:53;;;;;;;9.50;5.50;;;;;;;12.76;71.72;99311.14;107924;1256;63888;-85
2023/04/13 04:38:31;;;;;;;8.70;5.30;;;;;;;12.80;71.73;99308.55;108000;1255;61088;-86
2023/04/13 04:41:03;;;;;;;9.20;5.30;;;;;;;12.85;71.75;99306.29;108017;1257;73801;-86
2023/04/13 04:43:34;;;;;;;9.00;5.30;;;;;;;12.88;71.64;99301.23;108073;1256;73926;-86
2023/04/13 04:46:06;;;;;;;10.50;5.40;;;;;;;12.90;71.58;99299.56;108007;1255;73141;-85
2023/04/13 04:48:36;;;;;;;9.30;5.20;;;;;;;12.95;71.60;99292.03;108078;1256;61248;-85
2023/04/13 04:51:07;;;;;;;8.40;5.40;;;;;;;12.96;71.68;99288.72;108025;1256;61322;-85
2023/04/13 04:53:37;;;;;;;7.60;5.40;;;;;;;13.00;71.88;99287.46;107986;1256;74251;-85
2023/04/13 04:56:08;;;;;;;12.00;5.90;;;;;;;13.05;71.84;99292.80;108028;1255;73723;-85
2023/04/13 04:58:50;;;;;;;9.90;5.10;;;;;;;13.09;71.66;99303.02;108034;1255;72906;-85
2023/04/13 05:01:25;;;;;;;7.60;4.90;;;;;;;13.13;71.53;99303.23;108033;1256;63038;-86
2023/04/13 05:04:00;;;;;;;9.20;4.80;;;;;;;13.18;71.41;99301.66;107998;1255;61114;-87
2023/04/13 05:06:35;;;;;;;10.00;4.90;;;;;;;13.24;71.51;99307.21;108017;1256;74984;-87
2023/04/13 05:09:04;;;;;;;6.60;5.00;;;;;;;13.31;71.43;99312.07;107979;1257;74058;-87
2023/04/13 05:11:35;;;;;;;10.60;4.70;;;;;;;13.34;71.27;99313.86;108032;1255;73893;-85
2023/04/13 05:14:05;;;;;;;10.00;5.10;;;;;;;13.37;71.18;99305.27;108037;1258;62012;-86
2023/04/13 05:16:35;;;;;;;8.20;5.40;;;;;;;13.40;71.03;99307.77;108041;1256;62061;-87
2023/04/13 05:19:16;;;;;;;9.30;5.50;;;;;;;13.39;70.99;99306.76;108017;1256;76156;-84
2023/04/13 05:21:48;;;;;;;10.70;5.70;;;;;;;13.38;70.87;99311.23;109255;1256;72905;-85
2023/04/13 05:24:17;;;;;;;11.80;6.50;;;;;;;13.38;70.90;99306.77;108931;1254;70682;-86
2023/04/13 05:26:47;;;;;;;8.00;5.50;;;;;;;13.42;71.06;99309.58;108438;1256;61230;-87
2023/04/13 05:29:20;;;;;;;9.40;5.10;;;;;;;13.53;71.16;99310.98;108637;1256;59839;-87
2023/04/13 05:31:49;;;;;;;7.40;4.80;;;;;;;13.60;70.96;99314.30;108354;1256;74682;-86
2023/04/13 05:34:25;;;;;;;10.70;5.80;;;;;;;13.65;70.79;99314.80;108525;1256;71275;-86
2023/04/13 05:37:15;;;;;;;8.60;5.80;;;;;;;13.73;70.64;99317.44;108315;1260;71604;-85
2023/04/13 05:39:45;;;;;;;8.80;5.70;;;;;;;13.84;70.59;99319.48;108094;1256;61570;-86
2023/04/13 05:42:15;;;;;;;7.20;4.50;;;;;;;13.90;70.06;99320.23;108219;1255;60164;-86
2023/04/13 05:44:51;;;;;;;9.50;4.50;;;;;;;13.93;69.51;99324.44;108991;1258;74626;-80
2023/04/13 05:47:27;;;;;;;9.70;4.70;;;;;;;13.93;69.09;99323.91;108691;1256;72899;-80
2023/04/13 05:50:00;;;;;;;7.60;4.60;;;;;;;13.92;68.53;99321.09;107976;1256;71718;-86
2023/04/13 05:52:28;;;;;;;8.60;4.70;;;;;;;13.94;68.29;99317.12;107990;1256;61270;-87
2023/04/13 05:54:57;;;;;;;9.00;4.40;;;;;;;14.01;68.39;99316.66;107990;1256;62713;-87
2023/04/13 05:57:28;;;;;;;7.60;4.50;;;;;;;14.09;68.15;99318.23;108008;1256;73544;-88
2023/04/13 05:59:57;;;;;;;11.20;4.90;;;;;;;14.14;67.79;99313.35;108002;1257;73015;-86
2023/04/13 06:02:42;;;;;;;6.50;4.70;;;;;;;14.12;67.10;99316.54;108067;1256;72649;-85
2023/04/13 06:05:13;;;;;;;9.50;4.90;;;;;;;14.07;66.92;99315.63;108030;1254;62436;-86
2023/04/13 06:07:45;;;;;;;;;;;;;;;14.10;67.09;99312.98;108107;1256;61148;-86
2023/04/13 06:10:16;;;;;;;7.70;4.40;;;;;;;14.17;66.77;99308.22;108024;1256;74837;-87
2023/04/13 06:12:47;;;;;;;8.10;4.10;;;;;;;14.25;66.81;99313.27;108071;1258;73913;-86
2023/04/13 06:15:20;;;;;;;7.20;4.20;;;;;;;14.39;66.68;99317.06;108017;1258;71515;-86
2023/04/13 06:17:51;;;;;;;7.50;4.50;;;;;;;14.51;66.40;99319.47;108066;1255;61273;-86
2023/04/13 06:20:20;;;;;;;7.50;4.40;;;;;;;14.62;66.20;99320.36;108022;1256;61301;-85
2023/04/13 06:22:51;;;;;;;7.50;4.30;;;;;;;14.69;65.71;99325.14;107999;1257;75870;-85
2023/04/13 06:25:21;;;;;;;6.20;4.10;;;;;;;14.73;65.07;99332.71;108090;1256;71586;-85
2023/04/13 06:27:53;;;;;;;7.30;4.30;;;;;;;14.69;64.65;99338.11;108078;1255;72212;-85
2023/04/13 06:30:21;;;;;;;6.70;4.20;;;;;;;14.66;64.58;99340.00;108058;1256;61211;-85
2023/04/13 06:32:53;;;;;;;6.60;4.30;;;;;;;14.66;64.28;99343.44;108067;1256;61139;-85
2023/04/13 06:35:35;;;;;;;8.20;4.40;;;;;;;14.66;64.24;99351.20;107998;1256;74832;-84
2023/04/13 06:38:03;;;;;;;5.90;3.90;;;;;;;14.72;64.17;99355.70;107974;1256;71946;-85
2023/04/13 06:40:45;;;;;;;;;;;;;;;14.72;63.97;99358.80;107997;1256;73682;-86
2023/04/13 06:43:13;;;;;;;8.30;4.10;;;;;;;14.71;63.83;99355.45;108036;1255;62497;-86
2023/04/13 06:46:15;;;;;;;6.00;3.60;;;;;;;14.75;63.67;99355.84;108026;1258;61122;-85
2023/04/13 06:48:50;;;;;;;6.90;4.40;;;;;;;14.74;63.31;99353.55;107957;1255;74201;-85
2023/04/13 06:51:22;;;;;;;;;;;;;;;14.75;63.21;99351.58;107939;1256;73056;-86
2023/04/13 06:53:53;;;;;;;7.20;4.70;;;;;;;14.74;63.13;99348.86;108012;1257;73915;-86
2023/04/13 06:56:30;;;;;;;7.70;5.10;;;;;;;14.77;62.89;99344.95;108047;1256;62958;-86
2023/04/13 06:59:12;;;;;;;7.30;4.40;;;;;;;14.81;62.88;99344.52;107844;1258;61234;-86
2023/04/13 07:01:42;;;;;;;6.40;4.40;;;;;;;14.87;62.70;99345.21;107947;1256;73458;-87
2023/04/13 07:04:11;;;;;;;7.00;4.20;;;;;;;14.93;62.58;99348.36;107994;1257;73017;-86
2023/04/13 07:06:42;;;;;;;6.40;4.20;;;;;;;15.00;62.44;99349.27;107948;1256;72236;-86
2023/04/13 07:09:12;;;;;;;8.40;4.60;;;;;;;15.04;62.22;99350.61;108046;1258;61118;-87
2023/04/13 07:11:43;;;;;;;8.40;3.80;;;;;;;15.09;62.21;99354.22;108829;1256;61276;-87
2023/04/13 07:14:12;;;;;;;9.30;4.80;;;;;;;15.24;62.10;99353.35;108681;1258;74043;-85
2023/04/13 07:16:40;;;;;;;8.10;4.70;;;;;;;15.42;61.59;99350.12;108186;1256;72889;-86
2023/04/13 07:19:10;;;;;;;10.80;4.90;;;;;;;15.60;61.45;99349.76;107859;1258;70717;-85
2023/04/13 07:21:41;;;;;;;7.10;4.50;;;;;;;15.80;61.14;99345.52;108093;1256;62563;-86
2023/04/13 07:24:09;;;;;;;7.90;4.90;;;;;;;15.97;60.54;99339.87;107964;1256;60960;-87
2023/04/13 07:26:41;;;;;;;7.60;4.90;;;;;;;16.15;60.11;99334.59;108049;1256;74707;-86
2023/04/13 07:29:15;;;;;;;10.70;5.20;;;;;;;16.36;59.75;99339.03;108005;1260;72515;-86
2023/04/13 07:31:47;;;;;;;8.80;4.90;;;;;;;16.57;58.90;99338.91;108033;1256;71743;-86
2023/04/13 07:34:17;;;;;;;10.70;5.20;;;;;;;16.72;57.89;99342.34;108011;1256;61097;-87
2023/04/13 07:36:49;;;;;;;7.80;4.10;;;;;;;16.82;57.27;99343.92;107970;1254;61228;-85
2023/04/13 07:39:21;;;;;;;7.10;4.30;;;;;;;16.82;56.51;99348.62;108046;1256;74373;-86
2023/04/13 07:41:53;;;;;;;8.10;4.40;;;;;;;16.80;56.50;99348.85;107957;1254;73845;-86
2023/04/13 07:44:36;;;;;;;7.20;4.60;;;;;;;16.84;56.15;99351.77;107941;1256;73638;-86
2023/04/13 07:47:06;;;;;;;9.00;4.40;;;;;;;16.80;55.70;99364.02;108043;1255;61376;-86
2023/04/13 07:49:37;;;;;;;10.20;4.50;;;;;;;16.71;55.50;99365.25;108056;1256;61108;-85
2023/04/13 07:52:11;;;;;;;8.00;3.90;;;;;;;16.66;55.72;99366.92;107947;1256;73872;-86
2023/04/13 07:54:40;;;;;;;8.70;4.10;;;;;;;16.67;55.94;99366.27;108024;1256;72315;-85
2023/04/13 07:57:10;;;;;;;7.40;3.90;;;;;;;16.70;55.90;99366.69;108028;1256;72483;-86
2023/04/13 07:59:44;;;;;;;6.60;4.10;;;;;;;16.73;55.58;99370.66;107928;1257;61240;-86
2023/04/13 08:02:13;;;;;;;10.00;4.70;;;;;;;16.69;54.90;99375.58;107879;1257;61197;-87
2023/04/13 08:04:45;;;;;;;7.20;3.60;;;;;;;16.63;55.12;99380.84;107972;1257;73779;-85
2023/04/13 08:07:17;;;;;;;6.90;3.20;;;;;;;16.63;55.52;99385.85;107954;1256;73495;-87
2023/04/13 08:09:47;;;;;;;8.60;3.70;;;;;;;16.67;55.54;99387.13;107962;1256;73189;-87
2023/04/13 08:12:16;;;;;;;5.30;3.40;;;;;;;16.68;54.96;99389.46;108049;1258;61001;-87
2023/04/13 08:14:47;;;;;;;6.00;3.60;;;;;;;16.61;54.39;99380.84;107979;1255;61254;-86
2023/04/13 08:17:17;;;;;;;7.60;3.70;;;;;;;16.54;54.53;99381.25;107997;1260;74942;-86
2023/04/13 08:19:45;;;;;;;6.30;3.30;;;;;;;16.53;54.38;99384.85;108064;1259;73484;-86
2023/04/13 08:22:17;;;;;;;6.50;3.80;;;;;;;16.56;54.24;99382.49;108014;1258;71878;-86
2023/04/13 08:24:45;;;;;;;6.60;3.50;;;;;;;16.56;54.47;99383.87;107970;1258;62143;-86
2023/04/13 08:27:14;;;;;;;6.10;4.10;;;;;;;16.56;54.61;99385.09;107912;1256;61240;-87
2023/04/13 08:29:45;;;;;;;9.10;4.60;;;;;;;16.60;54.46;99389.35;107992;1256;73664;-86
2023/04/13 08:32:16;;;;;;;8.60;3.90;;;;;;;16.63;54.24;99387.79;108020;1259;73749;-88
2023/04/13 08:34:45;;;;;;;6.50;3.20;;;;;;;16.72;54.20;99389.05;107854;1258;73923;-85
2023/04/13 08:37:15;;;;;;;7.00;4.20;;;;;;;16.76;54.01;99393.55;108031;1260;61375;-86
2023/04/13 08:39:47;;;;;;;7.50;3.80;;;;;;;16.80;54.28;99388.13;108584;1260;59353;-86
2023/04/13 08:42:17;;;;;;;5.40;3.70;;;;;;;16.85;53.90;99387.59;108512;1256;72901;-85
2023/04/13 08:44:47;;;;;;;6.50;3.60;;;;;;;16.77;53.45;99389.94;108144;1260;72521;-87
2023/04/13 08:47:16;;;;;;;5.40;3.70;;;;;;;16.73;52.64;99389.15;107695;1261;72810;-87
2023/04/13 08:49:47;;;;;;;7.40;3.90;;;;;;;16.71;52.64;99385.84;108019;1257;61140;-86
2023/04/13 08:52:19;;;;;;;6.90;4.00;;;;;;;16.72;52.47;99385.17;108019;1257;61098;-84
2023/04/13 08:54:51;;;;;;;6.70;3.50;;;;;;;16.75;51.78;99384.75;107984;1257;75730;-84
2023/04/13 08:57:24;;;;;;;6.40;3.60;;;;;;;16.77;52.06;99376.21;108033;1260;71552;-83
2023/04/13 08:59:52;;;;;;;7.20;4.30;;;;;;;16.88;51.96;99381.04;107964;1260;73942;-85
2023/04/13 09:02:23;;;;;;;6.90;3.70;;;;;;;16.93;51.57;99383.85;108014;1256;61331;-85
2023/04/13 09:04:56;;;;;;;5.80;3.40;;;;;;;16.94;51.47;99384.11;108106;1255;61142;-84
2023/04/13 09:07:29;;;;;;;5.20;3.60;;;;;;;16.93;51.76;99383.30;108065;1260;75609;-85
2023/04/13 09:10:02;;;;;;;8.00;3.60;;;;;;;17.02;52.06;99382.27;108011;1257;73384;-84
2023/04/13 09:12:32;;;;;;;5.40;3.20;;;;;;;17.16;51.62;99381.70;108021;1256;72849;-89
2023/04/13 09:15:06;;;;;;;5.60;3.10;;;;;;;17.17;50.37;99379.73;107957;1256;61115;-85
2023/04/13 09:17:39;;;;;;;6.70;3.90;;;;;;;17.15;50.40;99379.42;107951;1257;61478;-89
2023/04/13 09:20:17;;;;;;;7.50;3.40;;;;;;;17.20;50.83;99377.47;108017;1255;74611;-90
2023/04/13 09:22:48;;;;;;;5.70;3.40;;;;;;;17.26;50.67;99382.38;108020;1257;73335;-88
2023/04/13 09:25:34;;;;;;;7.10;4.00;;;;;;;17.34;50.44;99385.98;108308;1259;70591;-92
2023/04/13 09:28:07;;;;;;;10.00;4.00;;;;;;;17.27;50.19;99393.20;108059;1257;61893;-90
2023/04/13 09:30:37;;;;;;;7.60;4.20;;;;;;;17.18;50.52;99392.24;108203;1257;61784;-91
2023/04/13 09:33:09;;;;;;;10.60;4.10;;;;;;;17.15;50.74;99392.21;108041;1257;74609;-90
2023/04/13 09:35:41;;;;;;;7.00;3.90;;;;;;;17.17;50.99;99390.51;107924;1257;73747;-90
2023/04/13 09:38:14;;;;;;;6.50;4.20;;;;;;;17.17;50.86;99394.37;108009;1258;72889;-92
2023/04/13 09:40:47;;;;;;;6.70;4.30;;;;;;;17.14;50.96;99393.20;107855;1258;61161;-90
2023/04/13 09:43:16;;;;;;;6.40;4.30;;;;;;;17.12;51.32;99391.50;107896;1256;61164;-88
2023/04/13 09:45:47;;;;;;;6.20;3.80;;;;;;;17.14;51.61;99392.34;107677;1257;74635;-85
2023/04/13 09:48:20;;;;;;;6.50;3.40;;;;;;;17.11;51.54;99399.02;108031;1257;72966;-81
2023/04/13 09:51:01;;;;;;;7.90;3.80;;;;;;;17.03;51.42;99403.50;108120;1255;72666;-82
2023/04/13 09:53:48;;;;;;;6.30;3.60;;;;;;;16.98;51.28;99405.69;108087;1257;61247;-86
2023/04/13 09:56:19;;;;;;;5.60;3.30;;;;;;;16.84;50.95;99404.86;108103;1257;61138;-85
2023/04/13 09:58:54;;;;;;;6.20;3.50;;;;;;;16.69;50.68;99402.25;108095;1257;73689;-82
2023/04/13 10:01:22;;;;;;;7.70;3.80;;;;;;;16.55;50.81;99405.02;108120;1257;73739;-83
2023/04/13 10:03:56;;;;;;;8.20;3.60;;;;;;;16.48;51.14;99411.58;108152;1260;71869;-87
2023/04/13 10:06:27;;;;;;;5.40;3.90;;;;;;;16.46;51.52;99407.44;109102;1255;59729;-86
2023/04/13 10:08:58;;;;;;;7.50;4.00;;;;;;;16.47;52.03;99407.37;109224;1255;60411;-83
2023/04/13 10:11:27;;;;;;;6.50;4.00;;;;;;;16.53;52.35;99407.71;108638;1254;73378;-83
2023/04/13 10:13:58;;;;;;;6.30;4.00;;;;;;;16.60;52.34;99410.76;108112;1256;73047;-83
2023/04/13 10:16:36;;;;;;;6.10;3.80;;;;;;;16.65;52.15;99412.48;108165;1260;73166;-83
2023/04/13 10:19:07;;;;;;;;;;;;;;;16.70;52.07;99411.54;108158;1257;61121;-83
2023/04/13 10:21:38;;;;;;;8.10;4.10;;;;;;;16.72;51.42;99416.52;107823;1258;60880;-84
2023/04/13 10:24:12;;;;;;;4.90;3.50;;;;;;;16.70;51.44;99418.16;107985;1257;75524;-84
2023/04/13 10:26:42;;;;;;;5.90;3.90;;;;;;;16.68;51.61;99420.08;108045;1257;72782;-84
2023/04/13 10:29:13;;;;;;;7.30;3.80;;;;;;;16.69;51.98;99421.81;108116;1257;72014;-84
2023/04/13 10:31:47;;;;;;;5.30;3.70;;;;;;;16.79;51.90;99417.18;108106;1256;61612;-85
2023/04/13 10:34:25;;;;;;;6.10;3.70;;;;;;;16.92;51.27;99416.16;108097;1257;61171;-84
2023/04/13 10:37:02;;;;;;;7.70;3.40;;;;;;;17.01;50.88;99417.13;108126;1255;73693;-86
2023/04/13 10:39:33;;;;;;;7.00;3.60;;;;;;;17.08;50.65;99417.56;107996;1257;73269;-83
2023/04/13 10:42:02;;;;;;;5.30;3.50;;;;;;;17.13;50.40;99419.36;107960;1260;70413;-82
2023/04/13 10:44:42;;;;;;;6.30;3.60;;;;;;;17.05;50.41;99424.25;108056;1258;61081;-83
2023/04/13 10:47:22;;;;;;;7.40;4.50;;;;;;;16.97;51.06;99428.30;108059;1257;61340;-85
2023/04/13 10:49:55;;;;;;;5.30;4.20;;;;;;;16.93;51.45;99436.10;108151;1255;75299;-85
2023/04/13 10:52:23;;;;;;;8.70;4.70;;;;;;;16.81;51.87;99433.88;107973;1260;71632;-83
2023/04/13 10:54:51;;;;;;;6.20;5.00;;;;;;;16.66;52.58;99441.19;108023;1256;72664;-84
2023/04/13 10:57:21;;;;;;;7.20;4.50;;;;;;;16.50;52.99;99440.78;108055;1256;62212;-82
2023/04/13 10:59:56;;;;;;;7.90;4.90;;;;;;;16.41;53.71;99446.64;108068;1257;61111;-83
2023/04/13 11:02:33;;;;;;;8.00;4.70;;;;;;;16.34;53.93;99451.61;108053;1258;75381;-83
2023/04/13 11:05:01;;;;;;;;;;;;;;;16.29;53.95;99455.00;107984;1259;73817;-83
2023/04/13 11:07:32;;;;;;;7.00;4.00;;;;;;;16.23;54.17;99457.44;108092;1259;72730;-83
2023/04/13 11:10:01;;;;;;;5.40;4.10;;;;;;;16.19;54.40;99459.29;107988;1255;61132;-83
2023/04/13 11:12:31;;;;;;;6.70;4.40;;;;;;;16.11;54.73;99460.70;107998;1254;60645;-84
2023/04/13 11:15:07;;;;;;;7.00;4.00;;;;;;;15.95;55.15;99463.73;108065;1254;74872;-85
2023/04/13 11:17:35;;;;;;;7.60;4.20;;;;;;;15.83;55.49;99465.88;107998;1257;73974;-84
2023/04/13 11:20:09;;;;;;;6.60;3.60;;;;;;;15.78;55.91;99467.60;108030;1254;73702;-83
2023/04/13 11:22:42;;;;;;;9.30;3.70;;;;;;;15.72;56.13;99467.98;108027;1254;63574;-83
2023/04/13 11:25:15;;;;;;;5.90;3.90;;;;;;;15.69;56.49;99467.92;107915;1256;61195;-84
2023/04/13 11:27:43;;;;;;;6.60;3.50;;;;;;;15.66;56.71;99465.91;107870;1255;75056;-83
2023/04/13 11:30:13;;;;;;;7.20;3.70;;;;;;;15.58;56.88;99464.63;108028;1257;71914;-83
2023/04/13 11:32:49;;;;;;;7.90;4.00;;;;;;;15.49;57.05;99467.83;108572;1256;73244;-83
2023/04/13 11:35:22;;;;;;;5.70;3.30;;;;;;;15.38;57.27;99462.88;109113;1255;60843;-82
2023/04/13 11:37:52;;;;;;;6.40;3.60;;;;;;;15.28;57.61;99463.27;108925;1256;60337;-84
2023/04/13 11:40:24;;;;;;;6.20;3.50;;;;;;;15.15;57.94;99466.29;108097;1257;75311;-84
2023/04/13 11:42:57;;;;;;;7.90;4.00;;;;;;;15.07;58.30;99469.48;108157;1256;71914;-85
2023/04/13 11:45:29;;;;;;;6.30;3.70;;;;;;;15.06;58.86;99472.41;108094;1255;73591;-83
2023/04/13 11:47:57;;;;;;;7.60;4.60;;;;;;;15.06;58.88;99473.99;108106;1255;61205;-83
2023/04/13 11:50:26;;;;;;;6.40;4.80;;;;;;;15.06;58.96;99471.23;108068;1256;61236;-84
2023/04/13 11:52:57;;;;;;;8.10;4.70;;;;;;;15.02;58.80;99473.29;108014;1257;74652;-85